Time;durP1;ratioP1;P1;durP2;ratioP2;P2;SDS_P1;SDS_P2;PMS_P1;PMS_P2;Temp;Humidity;BMP_temperature;BMP_pressure;BME280_temperature;BME280_humidity;BME280_pressure;Samples;Min_cycle;Max_cycle;Signal;HPM_P1;HPM_P2
2021/05/13 00:02:07;;;;;;;11.73;4.50;;;;;;;11.54;78.70;99246.62;1664315;85;21108;-71
2021/05/13 00:04:34;;;;;;;9.18;4.87;;;;;;;11.49;79.30;99247.95;1666169;85;21034;-69
2021/05/13 00:07:00;;;;;;;7.03;4.25;;;;;;;11.43;79.84;99244.16;1629987;86;21105;-68
2021/05/13 00:09:27;;;;;;;10.23;3.85;;;;;;;11.34;80.05;99243.34;1649067;85;21097;-71
2021/05/13 00:11:56;;;;;;;9.05;4.47;;;;;;;11.34;80.61;99245.22;1630324;86;20950;-67
2021/05/13 00:14:23;;;;;;;7.65;4.62;;;;;;;11.26;80.96;99242.52;1651837;85;21574;-69
2021/05/13 00:16:50;;;;;;;8.03;4.67;;;;;;;11.24;81.26;99233.89;1637264;86;21098;-70
2021/05/13 00:19:16;;;;;;;6.08;4.92;;;;;;;11.24;81.25;99232.55;1634547;86;21622;-70
2021/05/13 00:21:44;;;;;;;7.70;4.53;;;;;;;11.23;81.37;99225.53;1651215;85;21126;-70
2021/05/13 00:24:13;;;;;;;8.68;4.87;;;;;;;11.23;81.44;99226.88;1652171;86;21559;-71
2021/05/13 00:26:46;;;;;;;6.62;4.30;;;;;;;11.27;81.55;99232.56;1630666;86;21109;-69
2021/05/13 00:29:12;;;;;;;7.17;5.55;;;;;;;11.34;81.48;99224.49;1620936;86;21035;-69
2021/05/13 00:31:40;;;;;;;6.67;4.72;;;;;;;11.34;81.19;99229.06;1647952;85;21009;-71
2021/05/13 00:34:06;;;;;;;7.10;5.62;;;;;;;11.33;81.14;99229.60;1623761;86;21074;-67
2021/05/13 00:36:34;;;;;;;7.08;5.28;;;;;;;11.29;80.98;99227.70;1642236;85;20947;-69
2021/05/13 00:39:02;;;;;;;8.83;5.10;;;;;;;11.24;81.16;99224.47;1661812;85;21084;-71
2021/05/13 00:41:28;;;;;;;9.05;5.55;;;;;;;11.21;81.19;99223.66;1643811;85;21113;-70
2021/05/13 00:43:56;;;;;;;13.80;6.22;;;;;;;11.20;81.16;99219.88;1646011;86;22153;-67
2021/05/13 00:46:25;;;;;;;12.43;6.08;;;;;;;11.21;81.11;99223.66;1629787;86;21014;-68
2021/05/13 00:49:00;;;;;;;12.13;6.30;;;;;;;11.21;81.05;99217.47;1640975;86;21022;-70
2021/05/13 00:51:22;;;;;;;9.83;5.37;;;;;;;11.16;81.08;99210.72;1633706;86;21054;-72
2021/05/13 00:53:48;;;;;;;15.95;6.58;;;;;;;11.10;81.19;99205.86;1647570;85;22244;-72
2021/05/13 00:56:15;;;;;;;10.00;4.90;;;;;;;11.09;81.48;99206.11;1639875;86;21041;-72
2021/05/13 00:58:45;;;;;;;8.03;5.92;;;;;;;11.08;81.58;99202.61;1630076;86;21645;-72
2021/05/13 01:01:15;;;;;;;7.30;5.37;;;;;;;11.01;81.63;99199.38;1638524;86;21307;-71
2021/05/13 01:03:41;;;;;;;4.92;4.42;;;;;;;10.97;81.91;99199.64;1629072;87;21017;-74
2021/05/13 01:06:13;;;;;;;7.60;4.33;;;;;;;10.96;82.48;99202.58;1640045;87;21128;-74
2021/05/13 01:08:43;;;;;;;7.22;4.83;;;;;;;10.87;82.68;99185.61;1644410;86;21044;-72
2021/05/13 01:11:13;;;;;;;6.30;4.25;;;;;;;10.77;82.94;99192.83;1635491;86;21040;-70
2021/05/13 01:14:04;;;;;;;7.10;4.92;;;;;;;10.76;83.21;99189.86;1636247;87;21119;-68
2021/05/13 01:16:43;;;;;;;6.72;5.30;;;;;;;10.84;83.44;99184.78;1646457;86;21028;-67
2021/05/13 01:18:53;;;;;;;7.37;5.33;;;;;;;10.91;83.57;99189.92;1615083;87;21059;-74
2021/05/13 01:21:20;;;;;;;5.67;4.65;;;;;;;10.90;83.83;99195.02;1627758;86;21092;-70
2021/05/13 01:23:46;;;;;;;8.18;4.35;;;;;;;10.86;83.74;99193.94;1648383;86;21017;-69
2021/05/13 01:26:14;;;;;;;5.67;4.30;;;;;;;10.85;83.78;99190.97;1635999;86;22337;-68
2021/05/13 01:28:43;;;;;;;4.85;4.35;;;;;;;10.85;83.88;99184.24;1642550;87;21009;-68
2021/05/13 01:31:11;;;;;;;8.15;4.78;;;;;;;10.87;84.00;99176.73;1647540;86;21109;-69
2021/05/13 01:33:41;;;;;;;9.65;4.25;;;;;;;10.91;83.95;99180.50;1648504;87;21661;-69
2021/05/13 01:36:06;;;;;;;4.67;4.03;;;;;;;10.90;83.76;99177.00;1608220;87;20942;-68
2021/05/13 01:38:33;;;;;;;4.70;4.20;;;;;;;10.81;83.85;99170.52;1637409;86;21026;-68
2021/05/13 01:41:01;;;;;;;7.00;4.67;;;;;;;10.76;84.06;99175.88;1625330;87;21609;-75
2021/05/13 01:43:29;;;;;;;3.77;3.37;;;;;;;10.72;84.14;99177.48;1648405;86;22309;-68
2021/05/13 01:45:55;;;;;;;5.17;4.40;;;;;;;10.73;84.13;99174.27;1629953;86;21100;-69
2021/05/13 01:48:23;;;;;;;5.53;3.80;;;;;;;10.71;84.26;99171.83;1644631;87;20993;-69
2021/05/13 01:50:50;;;;;;;6.83;4.78;;;;;;;10.73;84.23;99168.35;1641221;86;21069;-71
2021/05/13 01:53:16;;;;;;;5.25;4.08;;;;;;;10.73;84.03;99168.88;1636928;87;21095;-67
2021/05/13 01:55:43;;;;;;;4.97;4.50;;;;;;;10.67;83.98;99173.42;1628839;86;20990;-67
2021/05/13 01:58:09;;;;;;;7.08;5.53;;;;;;;10.63;84.19;99174.22;1637770;85;21042;-67
2021/05/13 02:00:37;;;;;;;6.08;4.60;;;;;;;10.61;84.36;99175.81;1647463;85;21571;-68
2021/05/13 02:03:04;;;;;;;8.15;4.92;;;;;;;10.66;84.46;99177.19;1637250;86;21598;-69
2021/05/13 02:05:31;;;;;;;6.28;4.45;;;;;;;10.73;84.41;99178.30;1625102;86;21034;-66
2021/05/13 02:07:57;;;;;;;4.17;3.75;;;;;;;10.69;84.33;99177.20;1646675;85;21070;-67
2021/05/13 02:10:23;;;;;;;6.90;5.05;;;;;;;10.67;84.46;99176.11;1650380;86;20963;-68
2021/05/13 02:12:50;;;;;;;5.33;4.83;;;;;;;10.63;84.45;99180.41;1645273;85;21026;-69
2021/05/13 02:15:18;;;;;;;5.80;4.25;;;;;;;10.60;84.67;99175.53;1632251;86;21050;-69
2021/05/13 02:17:46;;;;;;;5.65;4.00;;;;;;;10.58;84.92;99172.31;1636223;86;21641;-73
2021/05/13 02:20:17;;;;;;;5.50;4.30;;;;;;;10.60;84.99;99182.82;1652315;85;21094;-70
2021/05/13 02:22:43;;;;;;;4.67;3.80;;;;;;;10.59;85.05;99181.20;1627260;86;21066;-68
2021/05/13 02:25:10;;;;;;;12.82;4.40;;;;;;;10.58;85.19;99176.34;1646609;86;20995;-67
2021/05/13 02:27:39;;;;;;;4.00;3.55;;;;;;;10.55;85.18;99174.73;1651898;85;21061;-67
2021/05/13 02:30:08;;;;;;;4.78;3.87;;;;;;;10.55;85.25;99174.73;1637637;85;21034;-68
2021/05/13 02:32:34;;;;;;;4.65;4.17;;;;;;;10.52;85.41;99180.61;1627293;86;21060;-67
2021/05/13 02:35:01;;;;;;;4.55;4.12;;;;;;;10.51;85.68;99171.73;1638813;86;21077;-67
2021/05/13 02:37:27;;;;;;;4.78;4.37;;;;;;;10.51;85.57;99179.80;1638872;86;21098;-71
2021/05/13 02:39:53;;;;;;;4.55;4.15;;;;;;;10.48;85.60;99173.08;1653168;86;21002;-67
2021/05/13 02:42:20;;;;;;;12.70;4.42;;;;;;;10.48;85.67;99170.92;1636962;86;20958;-76
2021/05/13 02:44:46;;;;;;;11.65;4.72;;;;;;;10.52;85.59;99171.20;1663168;85;21046;-68
2021/05/13 02:47:13;;;;;;;7.53;3.65;;;;;;;10.53;85.51;99168.26;1652065;85;21018;-68
2021/05/13 02:49:40;;;;;;;11.48;4.50;;;;;;;10.56;85.62;99167.72;1640642;86;21587;-67
2021/05/13 02:52:07;;;;;;;5.97;4.05;;;;;;;10.56;85.63;99170.41;1629646;86;21061;-67
2021/05/13 02:54:33;;;;;;;9.38;4.30;;;;;;;10.54;85.72;99173.10;1627764;86;21078;-69
2021/05/13 02:56:59;;;;;;;9.23;3.77;;;;;;;10.56;85.73;99171.76;1657152;84;21093;-67
2021/05/13 02:59:46;;;;;;;5.40;4.25;;;;;;;10.52;85.47;99174.70;1673229;85;21142;-71
2021/05/13 03:02:14;;;;;;;8.85;3.98;;;;;;;10.49;85.71;99173.36;1665042;85;21602;-70
2021/05/13 03:04:41;;;;;;;5.08;4.05;;;;;;;10.40;85.91;99176.27;1667272;85;21557;-70
2021/05/13 03:07:07;;;;;;;5.33;3.62;;;;;;;10.35;86.17;99176.78;1664144;85;21017;-68
2021/05/13 03:09:41;;;;;;;7.50;4.85;;;;;;;10.32;86.32;99177.28;1666195;85;21098;-67
2021/05/13 03:12:07;;;;;;;7.62;3.75;;;;;;;10.31;86.45;99185.09;1644662;86;21027;-67
2021/05/13 03:14:35;;;;;;;9.83;5.97;;;;;;;10.37;86.62;99176.78;1671926;85;21625;-73
2021/05/13 03:17:04;;;;;;;7.62;4.15;;;;;;;10.39;86.48;99179.22;1657877;85;20966;-67
2021/05/13 03:19:45;;;;;;;10.18;5.62;;;;;;;10.39;86.56;99183.25;1646699;85;21054;-68
2021/05/13 03:22:15;;;;;;;10.98;6.28;;;;;;;10.38;86.61;99183.78;1648858;86;21046;-69
2021/05/13 03:24:53;;;;;;;6.80;4.45;;;;;;;10.35;86.79;99182.16;1664627;85;21132;-67
2021/05/13 03:27:39;;;;;;;4.67;4.28;;;;;;;10.33;87.01;99185.63;1660355;85;21113;-68
2021/05/13 03:29:54;;;;;;;6.12;4.92;;;;;;;10.33;87.18;99188.31;1651058;85;20974;-68
2021/05/13 03:32:22;;;;;;;5.37;4.08;;;;;;;10.33;87.26;99183.75;1674006;85;21086;-70
2021/05/13 03:34:48;;;;;;;5.58;4.67;;;;;;;10.35;87.36;99184.31;1668336;85;21090;-70
2021/05/13 03:37:15;;;;;;;5.85;4.45;;;;;;;10.37;87.47;99182.69;1638932;86;21604;-69
2021/05/13 03:39:41;;;;;;;8.83;4.90;;;;;;;10.42;87.56;99185.40;1673703;85;21567;-70
2021/05/13 03:42:09;;;;;;;7.92;5.28;;;;;;;10.48;87.35;99186.52;1658271;84;21543;-69
2021/05/13 03:44:36;;;;;;;8.45;4.72;;;;;;;10.47;87.18;99193.50;1651010;84;20986;-69
2021/05/13 03:47:02;;;;;;;6.75;3.95;;;;;;;10.45;87.33;99189.71;1664861;84;21065;-70
2021/05/13 03:49:28;;;;;;;10.28;5.10;;;;;;;10.49;87.37;99197.55;1645869;85;21066;-71
2021/05/13 03:51:55;;;;;;;14.93;6.30;;;;;;;10.49;87.36;99200.24;1677440;84;20994;-69
2021/05/13 03:54:22;;;;;;;10.80;5.50;;;;;;;10.48;87.46;99196.46;1641820;85;21006;-71
2021/05/13 03:56:48;;;;;;;11.30;4.95;;;;;;;10.48;87.46;99206.69;1668790;85;22258;-69
2021/05/13 03:59:17;;;;;;;14.18;5.12;;;;;;;10.49;87.51;99196.21;1668768;85;21058;-69
2021/05/13 04:01:48;;;;;;;13.03;4.60;;;;;;;10.49;87.56;99198.91;1669012;84;21025;-69
2021/05/13 04:04:11;;;;;;;8.28;5.35;;;;;;;10.53;87.74;99201.87;1670099;85;21065;-70
2021/05/13 04:06:38;;;;;;;8.18;5.67;;;;;;;10.58;87.66;99203.77;1671762;85;21022;-73
2021/05/13 04:09:08;;;;;;;7.58;5.22;;;;;;;10.61;87.51;99205.92;1665483;85;20994;-68
2021/05/13 04:11:38;;;;;;;12.33;4.83;;;;;;;10.66;87.48;99206.77;1650416;85;21054;-68
2021/05/13 04:14:06;;;;;;;5.22;4.65;;;;;;;10.66;87.11;99206.77;1655629;85;21077;-70
2021/05/13 04:16:35;;;;;;;5.47;3.90;;;;;;;10.63;87.01;99203.27;1670309;85;21583;-69
2021/05/13 04:19:01;;;;;;;5.33;4.83;;;;;;;10.61;86.94;99205.39;1680577;84;20989;-71
2021/05/13 04:21:28;;;;;;;12.65;6.67;;;;;;;10.56;86.96;99202.68;1680396;85;21089;-71
2021/05/13 04:23:56;;;;;;;9.15;4.80;;;;;;;10.54;87.18;99206.18;1678600;85;21113;-70
2021/05/13 04:26:22;;;;;;;8.68;5.70;;;;;;;10.60;87.30;99205.67;1681521;84;21049;-69
2021/05/13 04:28:50;;;;;;;5.87;5.33;;;;;;;10.67;87.01;99210.27;1681948;84;21002;-77
2021/05/13 04:31:17;;;;;;;5.62;5.10;;;;;;;10.73;86.86;99208.69;1660401;85;21102;-69
2021/05/13 04:33:43;;;;;;;7.33;6.08;;;;;;;10.72;86.78;99208.41;1644734;85;21058;-70
2021/05/13 04:36:11;;;;;;;6.67;4.97;;;;;;;10.71;86.68;99208.13;1680441;85;21058;-69
2021/05/13 04:38:38;;;;;;;8.03;5.70;;;;;;;10.70;86.63;99208.39;1658814;85;21067;-70
2021/05/13 04:41:07;;;;;;;8.68;5.85;;;;;;;10.72;86.75;99207.60;1680647;84;21114;-73
2021/05/13 04:43:35;;;;;;;9.05;5.50;;;;;;;10.78;86.64;99205.22;1644417;85;21066;-69
2021/05/13 04:46:02;;;;;;;7.70;6.15;;;;;;;10.84;86.46;99201.45;1680569;85;21085;-70
2021/05/13 04:48:40;;;;;;;8.65;7.80;;;;;;;10.86;86.02;99204.16;1680532;85;21534;-72
2021/05/13 04:50:57;;;;;;;10.15;7.15;;;;;;;10.81;85.84;99204.67;1678775;85;21017;-69
2021/05/13 04:53:23;;;;;;;6.75;6.05;;;;;;;10.80;85.88;99203.05;1665650;84;21005;-69
2021/05/13 04:55:51;;;;;;;10.05;7.22;;;;;;;10.83;85.86;99193.94;1680195;84;21055;-72
2021/05/13 04:58:17;;;;;;;7.25;6.55;;;;;;;10.84;85.78;99186.66;1680610;84;20998;-70
2021/05/13 05:00:45;;;;;;;6.70;6.10;;;;;;;10.87;85.79;99187.49;1671705;84;21632;-74
2021/05/13 05:03:11;;;;;;;6.67;5.90;;;;;;;10.85;85.69;99186.94;1656643;85;21200;-74
2021/05/13 05:05:38;;;;;;;13.22;7.47;;;;;;;10.83;85.82;99197.17;1679736;84;21657;-70
2021/05/13 05:08:04;;;;;;;9.93;6.80;;;;;;;10.86;85.81;99201.48;1632691;86;20950;-69
2021/05/13 05:10:31;;;;;;;6.17;5.58;;;;;;;10.88;85.81;99202.03;1652946;86;21125;-69
2021/05/13 05:12:57;;;;;;;10.18;9.10;;;;;;;10.92;85.78;99198.27;1663322;85;20958;-69
2021/05/13 05:15:24;;;;;;;9.43;5.62;;;;;;;10.97;85.96;99200.98;1667624;85;21078;-69
2021/05/13 05:17:50;;;;;;;11.43;6.53;;;;;;;11.05;85.77;99199.11;1680904;84;20966;-70
2021/05/13 05:20:17;;;;;;;5.85;5.30;;;;;;;11.07;85.50;99200.20;1680716;84;20974;-75
2021/05/13 05:22:44;;;;;;;8.18;6.85;;;;;;;11.10;85.58;99202.36;1680404;84;20970;-72
2021/05/13 05:25:12;;;;;;;7.83;7.03;;;;;;;11.15;85.49;99206.41;1637182;86;20981;-69
2021/05/13 05:27:38;;;;;;;10.75;6.55;;;;;;;11.18;85.35;99201.30;1631852;86;21554;-69
2021/05/13 05:30:07;;;;;;;7.00;6.00;;;;;;;11.23;85.22;99201.84;1631812;86;21062;-71
2021/05/13 05:32:34;;;;;;;10.50;7.33;;;;;;;11.25;85.21;99207.25;1652945;86;22228;-69
2021/05/13 05:35:04;;;;;;;7.35;6.65;;;;;;;11.33;85.15;99196.48;1639513;85;20987;-69
2021/05/13 05:37:31;;;;;;;8.75;5.97;;;;;;;11.44;84.50;99192.74;1667044;84;21074;-69
2021/05/13 05:40:03;;;;;;;11.65;6.17;;;;;;;11.48;83.96;99193.01;1652962;86;21825;-69
2021/05/13 05:42:31;;;;;;;12.05;6.62;;;;;;;11.48;83.67;99189.78;1611675;86;20973;-69
2021/05/13 05:44:58;;;;;;;5.92;5.42;;;;;;;11.53;83.74;99193.83;1678221;85;21058;-68
2021/05/13 05:47:24;;;;;;;6.78;6.20;;;;;;;11.63;83.48;99191.14;1647707;86;21097;-69
2021/05/13 05:49:51;;;;;;;7.60;6.58;;;;;;;11.71;83.38;99187.91;1653108;86;21534;-68
2021/05/13 05:52:17;;;;;;;9.88;7.67;;;;;;;11.81;82.44;99188.47;1652759;86;21278;-71
2021/05/13 05:54:43;;;;;;;11.50;7.72;;;;;;;11.86;81.95;99188.47;1673955;85;21699;-69
2021/05/13 05:57:09;;;;;;;11.45;7.30;;;;;;;11.95;81.86;99184.69;1649927;85;21402;-68
2021/05/13 05:59:37;;;;;;;14.58;7.80;;;;;;;12.04;81.40;99179.02;1652383;86;21029;-68
2021/05/13 06:02:03;;;;;;;6.33;5.72;;;;;;;12.09;80.50;99182.52;1652534;86;21056;-68
2021/05/13 06:04:30;;;;;;;8.55;6.55;;;;;;;12.19;80.00;99183.84;1646472;85;21066;-70
2021/05/13 06:06:56;;;;;;;10.00;6.83;;;;;;;12.31;78.80;99170.63;1655248;85;21037;-68
2021/05/13 06:09:22;;;;;;;7.60;6.55;;;;;;;12.38;78.07;99175.17;1652686;86;21561;-68
2021/05/13 06:11:49;;;;;;;8.48;7.05;;;;;;;12.44;77.68;99171.39;1629481;86;21585;-68
2021/05/13 06:14:16;;;;;;;7.65;5.95;;;;;;;12.54;76.67;99175.41;1644253;85;21062;-69
2021/05/13 06:16:42;;;;;;;6.95;6.25;;;;;;;12.62;75.70;99185.62;1677770;85;21097;-69
2021/05/13 06:19:09;;;;;;;13.43;6.00;;;;;;;12.66;75.14;99184.01;1680162;85;21590;-70
2021/05/13 06:21:38;;;;;;;8.25;6.05;;;;;;;12.73;74.37;99187.74;1680137;85;21023;-70
2021/05/13 06:24:08;;;;;;;7.17;6.50;;;;;;;12.79;73.40;99183.95;1678811;85;21026;-69
2021/05/13 06:26:33;;;;;;;5.20;4.80;;;;;;;12.84;72.72;99189.33;1663105;85;22161;-69
2021/05/13 06:29:02;;;;;;;11.10;6.72;;;;;;;12.83;72.60;99187.16;1629714;86;21056;-70
2021/05/13 06:31:29;;;;;;;8.30;5.97;;;;;;;12.84;72.63;99192.83;1652436;86;21097;-68
2021/05/13 06:33:56;;;;;;;6.05;5.53;;;;;;;12.82;72.03;99195.53;1662894;85;20982;-71
2021/05/13 06:36:22;;;;;;;8.40;6.78;;;;;;;12.78;71.68;99191.77;1668233;85;21122;-69
2021/05/13 06:38:48;;;;;;;7.50;6.90;;;;;;;12.80;71.95;99197.71;1629674;86;21113;-69
2021/05/13 06:41:15;;;;;;;7.30;6.60;;;;;;;12.85;71.96;99198.50;1629634;86;21654;-69
2021/05/13 06:43:41;;;;;;;7.42;6.72;;;;;;;12.88;71.97;99197.94;1652789;85;20986;-69
2021/05/13 06:46:08;;;;;;;6.75;6.22;;;;;;;12.92;72.30;99200.34;1677708;85;20990;-70
2021/05/13 06:48:34;;;;;;;7.30;6.70;;;;;;;13.01;72.30;99198.68;1656173;85;21034;-69
2021/05/13 06:51:02;;;;;;;7.83;7.03;;;;;;;13.06;71.68;99205.41;1656202;85;21098;-69
2021/05/13 06:53:29;;;;;;;6.95;6.25;;;;;;;13.17;71.43;99194.05;1656589;85;21135;-70
2021/05/13 06:55:55;;;;;;;9.33;7.10;;;;;;;13.25;71.14;99200.20;1654083;85;20997;-70
2021/05/13 06:58:22;;;;;;;11.50;6.37;;;;;;;13.37;70.96;99202.58;1654735;85;20989;-69
2021/05/13 07:00:49;;;;;;;12.13;7.03;;;;;;;13.48;70.63;99201.40;1658653;85;20959;-68
2021/05/13 07:03:16;;;;;;;11.40;7.00;;;;;;;13.58;69.70;99198.63;1677303;85;21665;-70
2021/05/13 07:05:42;;;;;;;7.05;5.70;;;;;;;13.69;69.29;99196.13;1680357;84;21052;-68
2021/05/13 07:08:09;;;;;;;9.88;5.65;;;;;;;13.84;68.25;99196.01;1680544;84;21079;-70
2021/05/13 07:10:37;;;;;;;5.10;4.60;;;;;;;13.99;66.57;99193.72;1673823;85;21041;-70
2021/05/13 07:13:04;;;;;;;5.40;3.98;;;;;;;14.12;65.89;99189.00;1659125;85;21054;-70
2021/05/13 07:15:32;;;;;;;5.30;3.12;;;;;;;14.23;63.99;99185.65;1653051;85;21136;-69
2021/05/13 07:17:59;;;;;;;4.75;3.52;;;;;;;14.36;63.46;99183.10;1652770;86;21090;-70
2021/05/13 07:20:26;;;;;;;2.35;2.20;;;;;;;14.50;61.84;99172.94;1656184;85;21061;-70
2021/05/13 07:22:52;;;;;;;3.62;2.77;;;;;;;14.62;60.01;99189.59;1649548;85;21002;-70
2021/05/13 07:25:20;;;;;;;7.12;2.52;;;;;;;14.72;59.47;99184.84;1680442;84;21092;-69
2021/05/13 07:27:47;;;;;;;4.05;2.45;;;;;;;14.82;58.89;99190.14;1658787;85;21113;-73
2021/05/13 07:30:15;;;;;;;5.92;3.95;;;;;;;14.88;56.67;99180.59;1657831;85;21163;-68
2021/05/13 07:32:42;;;;;;;3.75;2.30;;;;;;;14.92;56.18;99177.02;1662204;85;21102;-69
2021/05/13 07:35:13;;;;;;;4.33;2.47;;;;;;;14.99;55.07;99176.67;1652943;86;21086;-68
2021/05/13 07:37:42;;;;;;;4.80;3.30;;;;;;;15.03;54.41;99180.41;1652881;86;20931;-73
2021/05/13 07:40:10;;;;;;;4.35;2.55;;;;;;;15.08;54.47;99185.21;1632532;86;21593;-70
2021/05/13 07:42:37;;;;;;;4.90;3.12;;;;;;;15.13;54.13;99174.85;1642474;86;21018;-70
2021/05/13 07:45:06;;;;;;;3.30;2.55;;;;;;;15.14;53.91;99166.99;1631963;86;21538;-70
2021/05/13 07:47:37;;;;;;;2.70;2.30;;;;;;;15.11;53.53;99175.68;1632065;86;21135;-69
2021/05/13 07:50:08;;;;;;;2.80;2.22;;;;;;;15.05;52.82;99180.39;1631696;86;20966;-68
2021/05/13 07:52:35;;;;;;;3.27;2.15;;;;;;;15.06;52.44;99178.48;1677610;85;20974;-71
2021/05/13 07:55:03;;;;;;;3.65;2.67;;;;;;;15.06;52.95;99183.91;1680509;85;21061;-68
2021/05/13 07:57:29;;;;;;;2.45;2.08;;;;;;;15.12;52.67;99178.66;1680212;84;20997;-70
2021/05/13 07:59:56;;;;;;;3.02;2.50;;;;;;;15.17;52.63;99175.33;1679764;85;21006;-73
2021/05/13 08:02:22;;;;;;;2.60;2.05;;;;;;;15.29;52.14;99178.97;1655392;85;21066;-69
2021/05/13 08:04:49;;;;;;;1.65;1.50;;;;;;;15.31;51.75;99177.30;1672390;85;21061;-69
2021/05/13 08:07:21;;;;;;;4.80;2.65;;;;;;;15.37;51.70;99176.95;1652417;86;21663;-69
2021/05/13 08:09:47;;;;;;;2.95;2.60;;;;;;;15.48;51.99;99168.13;1665049;85;21100;-71
2021/05/13 08:12:14;;;;;;;2.52;1.95;;;;;;;15.59;51.58;99166.33;1663591;85;21029;-69
2021/05/13 08:14:40;;;;;;;3.60;2.30;;;;;;;15.73;50.99;99161.52;1652468;86;21073;-68
2021/05/13 08:17:06;;;;;;;4.90;2.27;;;;;;;15.81;50.68;99158.94;1653634;85;21138;-69
2021/05/13 08:19:33;;;;;;;3.22;2.30;;;;;;;15.84;50.46;99161.59;1670162;85;21656;-69
2021/05/13 08:21:59;;;;;;;5.17;2.35;;;;;;;15.82;50.28;99159.20;1652452;86;21022;-70
2021/05/13 08:24:26;;;;;;;3.87;2.50;;;;;;;15.78;50.17;99160.86;1672028;85;20946;-73
2021/05/13 08:26:54;;;;;;;5.53;2.02;;;;;;;15.74;49.75;99162.56;1679822;84;21086;-69
2021/05/13 08:29:20;;;;;;;2.60;2.10;;;;;;;15.73;49.55;99164.23;1652162;85;21479;-70
2021/05/13 08:31:47;;;;;;;2.55;2.30;;;;;;;15.70;49.24;99163.72;1652813;85;21173;-73
2021/05/13 08:34:13;;;;;;;7.28;2.05;;;;;;;15.76;49.58;99163.63;1669310;85;21018;-71
2021/05/13 08:36:43;;;;;;;2.15;1.95;;;;;;;15.78;49.49;99160.86;1656843;85;20970;-69
2021/05/13 08:39:13;;;;;;;4.42;2.20;;;;;;;15.83;49.30;99167.56;1680411;85;21556;-70
2021/05/13 08:41:39;;;;;;;5.05;2.50;;;;;;;15.87;49.61;99164.53;1649922;85;20963;-68
2021/05/13 08:44:10;;;;;;;2.55;2.15;;;;;;;15.93;49.30;99159.25;1679816;85;21033;-71
2021/05/13 08:46:37;;;;;;;3.37;2.67;;;;;;;15.97;49.47;99162.98;1680148;85;20986;-69
2021/05/13 08:49:04;;;;;;;6.33;3.62;;;;;;;16.07;49.52;99169.58;1655898;85;20994;-69
2021/05/13 08:51:34;;;;;;;4.50;2.27;;;;;;;16.12;48.85;99170.05;1643384;85;21598;-71
2021/05/13 08:54:00;;;;;;;3.80;2.25;;;;;;;16.06;48.66;99172.06;1656146;85;21045;-70
2021/05/13 08:56:28;;;;;;;13.80;3.05;;;;;;;16.06;48.85;99172.06;1679890;85;21061;-70
2021/05/13 08:58:58;;;;;;;2.58;1.87;;;;;;;16.12;48.94;99161.91;1679962;85;21063;-71
2021/05/13 09:01:24;;;;;;;3.60;1.98;;;;;;;16.22;48.41;99154.13;1647126;85;21019;-69
2021/05/13 09:03:53;;;;;;;4.80;2.17;;;;;;;16.28;47.92;99167.86;1656400;85;21058;-70
2021/05/13 09:06:45;;;;;;;4.58;1.92;;;;;;;16.39;48.16;99159.80;1656739;85;21017;-71
2021/05/13 09:08:56;;;;;;;2.08;1.87;;;;;;;16.53;47.08;99152.45;1671510;85;20935;-71
2021/05/13 09:11:22;;;;;;;2.00;1.90;;;;;;;16.63;45.96;99162.34;1659809;85;21025;-70
2021/05/13 09:14:00;;;;;;;3.22;1.72;;;;;;;16.67;46.47;99157.91;1654423;85;21386;-71
2021/05/13 09:16:37;;;;;;;2.83;1.80;;;;;;;16.71;46.28;99164.34;1679844;85;21070;-69
2021/05/13 09:19:22;;;;;;;3.25;1.87;;;;;;;16.69;46.31;99165.98;1679944;85;21086;-68
2021/05/13 09:22:04;;;;;;;1.98;1.80;;;;;;;16.72;46.12;99165.41;1656383;85;21127;-71
2021/05/13 09:24:50;;;;;;;3.52;1.35;;;;;;;16.71;45.54;99148.86;1654194;85;21091;-71
2021/05/13 09:27:44;;;;;;;3.25;1.75;;;;;;;16.71;45.47;99165.14;1652720;85;21001;-69
2021/05/13 09:30:20;;;;;;;1.72;1.25;;;;;;;16.69;45.57;99159.20;1652620;86;21586;-70
2021/05/13 09:32:55;;;;;;;3.45;1.42;;;;;;;16.80;46.23;99162.52;1652549;86;21057;-71
2021/05/13 09:35:29;;;;;;;2.37;1.32;;;;;;;16.84;45.30;99149.94;1603625;87;21074;-71
2021/05/13 09:38:06;;;;;;;2.60;2.40;;;;;;;16.87;45.15;99149.34;1637605;86;21069;-70
2021/05/13 09:40:53;;;;;;;1.50;1.40;;;;;;;16.96;44.60;99161.91;1653971;86;21124;-68
2021/05/13 09:43:27;;;;;;;13.85;1.57;;;;;;;16.97;44.04;99156.73;1658047;86;21667;-75
2021/05/13 09:45:59;;;;;;;3.72;1.10;;;;;;;16.93;43.05;99158.97;1606990;87;21095;-73
2021/05/13 09:48:40;;;;;;;1.17;1.07;;;;;;;16.95;42.34;99160.84;1635053;87;21126;-73
2021/05/13 09:51:30;;;;;;;6.05;2.87;;;;;;;16.92;43.33;99154.67;1638015;86;21659;-72
2021/05/13 09:54:17;;;;;;;1.92;1.50;;;;;;;16.96;43.68;99155.67;1637037;86;21579;-71
2021/05/13 09:56:54;;;;;;;2.98;1.62;;;;;;;16.98;43.79;99147.45;1650221;85;21609;-68
2021/05/13 09:59:28;;;;;;;4.08;1.95;;;;;;;16.90;44.18;99156.88;1656205;85;21003;-71
2021/05/13 10:01:59;;;;;;;4.72;2.00;;;;;;;16.87;44.69;99145.27;1656379;85;21631;-71
2021/05/13 10:04:26;;;;;;;4.62;1.70;;;;;;;16.93;44.74;99144.03;1685281;84;21071;-69
2021/05/13 10:06:56;;;;;;;1.92;1.30;;;;;;;16.96;44.36;99139.37;1674623;84;20977;-70
2021/05/13 10:09:26;;;;;;;1.42;1.32;;;;;;;16.97;43.05;99145.05;1609238;88;21029;-74
2021/05/13 10:11:55;;;;;;;1.77;1.57;;;;;;;16.99;43.25;99145.53;1631879;87;21013;-68
2021/05/13 10:14:26;;;;;;;1.80;1.65;;;;;;;16.98;43.33;99141.20;1624028;87;21129;-67
2021/05/13 10:17:01;;;;;;;4.10;1.70;;;;;;;16.96;43.68;99142.09;1636762;87;21057;-67
2021/05/13 10:19:42;;;;;;;1.35;1.22;;;;;;;16.95;44.27;99138.56;1623063;87;21013;-72
2021/05/13 10:22:13;;;;;;;2.98;1.40;;;;;;;17.07;43.99;99146.75;1598474;88;21133;-73
2021/05/13 10:24:41;;;;;;;1.62;1.50;;;;;;;17.12;44.47;99135.77;1624077;87;21041;-69
2021/05/13 10:27:20;;;;;;;2.58;2.20;;;;;;;17.20;44.05;99137.75;1648381;87;21655;-67
2021/05/13 10:30:01;;;;;;;2.50;2.30;;;;;;;17.15;44.51;99135.95;1620980;87;20985;-67
2021/05/13 10:32:31;;;;;;;1.72;1.57;;;;;;;17.18;44.90;99141.31;1650575;87;21073;-68
2021/05/13 10:34:59;;;;;;;3.12;1.80;;;;;;;17.15;45.00;99140.58;1652388;85;21065;-68
2021/05/13 10:37:35;;;;;;;4.12;2.27;;;;;;;17.12;45.13;99149.35;1651064;85;21053;-72
2021/05/13 10:40:22;;;;;;;4.92;2.10;;;;;;;17.11;45.24;99155.34;1641793;85;21238;-72
2021/05/13 10:42:44;;;;;;;8.30;2.52;;;;;;;17.01;45.31;99150.13;1667478;85;20986;-71
2021/05/13 10:45:36;;;;;;;2.40;1.37;;;;;;;17.10;45.04;99151.01;1655338;85;21074;-70
2021/05/13 10:48:22;;;;;;;6.15;2.20;;;;;;;17.12;44.61;99151.48;1633052;85;20986;-68
2021/05/13 10:51:03;;;;;;;2.70;2.12;;;;;;;17.11;45.17;99147.73;1656045;85;21098;-72
2021/05/13 10:53:42;;;;;;;2.22;2.02;;;;;;;17.19;45.52;99151.89;1671996;85;21574;-66
2021/05/13 10:56:28;;;;;;;1.80;1.70;;;;;;;17.31;44.17;99149.42;1647570;85;21144;-76
2021/05/13 10:59:05;;;;;;;3.75;2.00;;;;;;;17.48;43.30;99146.61;1659562;85;21603;-73
2021/05/13 11:01:49;;;;;;;3.60;1.60;;;;;;;17.67;43.05;99137.73;1652801;86;21570;-69
2021/05/13 11:04:25;;;;;;;2.22;1.98;;;;;;;17.79;42.79;99140.72;1649215;86;21098;-67
2021/05/13 11:06:56;;;;;;;4.65;2.12;;;;;;;17.90;42.69;99138.52;1631868;86;21109;-68
2021/05/13 11:09:45;;;;;;;9.85;2.22;;;;;;;17.90;43.77;99134.44;1634317;86;21583;-66
2021/05/13 11:12:28;;;;;;;1.98;1.80;;;;;;;18.07;43.88;99122.30;1653318;85;21752;-70
2021/05/13 11:17:50;;;;;;;5.00;3.25;;;;;;;18.32;41.36;99119.45;1640388;86;21081;-74
2021/05/13 11:20:44;;;;;;;3.70;1.85;;;;;;;18.39;41.67;99119.23;1615135;88;26736;-83
2021/05/13 11:23:21;;;;;;;2.20;2.00;;;;;;;18.53;41.23;99113.13;1623858;87;21022;-69
2021/05/13 11:25:50;;;;;;;2.20;2.00;;;;;;;18.64;40.09;99121.83;1629091;86;21594;-82
2021/05/13 11:28:46;;;;;;;2.02;1.70;;;;;;;18.53;40.20;99116.38;1626314;88;21082;-78
2021/05/13 11:31:20;;;;;;;5.10;2.05;;;;;;;18.44;40.79;99098.66;1615289;87;21090;-76
2021/05/13 11:33:57;;;;;;;3.90;2.10;;;;;;;18.40;39.63;99119.48;1618702;86;21078;-76
2021/05/13 11:36:28;;;;;;;1.90;1.77;;;;;;;18.27;39.47;99117.09;1644053;85;21026;-78
2021/05/13 11:38:57;;;;;;;2.17;1.98;;;;;;;18.20;40.06;99120.03;1626294;87;21016;-77
2021/05/13 11:41:23;;;;;;;8.13;2.15;;;;;;;18.15;39.01;99116.09;1620408;87;21609;-72
2021/05/13 11:43:50;;;;;;;2.00;1.90;;;;;;;18.24;39.12;99104.67;1615247;88;21030;-73
2021/05/13 11:46:20;;;;;;;1.77;1.67;;;;;;;18.45;39.47;99115.25;1615699;87;21113;-70